createdAt,value
2023-03-18T00:02:49.076Z,8.41
2023-03-18T00:07:50.443Z,8.39
2023-03-18T00:12:49.517Z,8.35
2023-03-18T00:17:49.692Z,8.26
2023-03-18T00:22:51.199Z,8.24
2023-03-18T00:27:50.148Z,8.24
2023-03-18T00:32:49.182Z,8.22
2023-03-18T00:37:49.691Z,8.23
2023-03-18T00:42:50.710Z,8.23
2023-03-18T00:47:50.363Z,8.19
2023-03-18T00:52:50.512Z,8.18
2023-03-18T00:57:49.303Z,8.20
2023-03-18T01:02:49.359Z,8.19
2023-03-18T01:07:48.478Z,8.21
2023-03-18T01:12:48.652Z,8.23
2023-03-18T01:17:48.192Z,8.11
2023-03-18T01:22:47.790Z,8.02
2023-03-18T01:27:48.465Z,8.07
2023-03-18T01:32:48.001Z,8.12
2023-03-18T01:37:47.251Z,8.16
2023-03-18T01:42:57.284Z,8.16
2023-03-18T01:47:58.989Z,7.92
2023-03-18T01:53:01.222Z,7.93
2023-03-18T01:58:04.842Z,7.95
2023-03-18T02:03:05.015Z,7.98
2023-03-18T02:08:03.854Z,8.03
2023-03-18T02:13:06.868Z,8.06
2023-03-18T02:18:13.081Z,8.05
2023-03-18T02:23:36.797Z,7.91
2023-03-18T02:28:40.005Z,7.91
2023-03-18T02:33:42.106Z,7.91
2023-03-18T02:38:43.168Z,7.87
2023-03-18T02:43:46.250Z,7.90
2023-03-18T02:48:47.424Z,7.93
2023-03-18T02:53:46.480Z,7.96
2023-03-18T02:58:47.086Z,7.94
2023-03-18T03:03:47.563Z,7.92
2023-03-18T03:08:46.959Z,7.89
2023-03-18T03:13:48.164Z,7.91
2023-03-18T03:18:48.630Z,7.92
2023-03-18T03:23:48.685Z,7.93
2023-03-18T03:28:49.080Z,7.92
2023-03-18T03:33:47.939Z,7.93
2023-03-18T03:38:47.362Z,7.93
2023-03-18T03:43:46.178Z,7.94
2023-03-18T03:48:48.032Z,7.95
2023-03-18T03:53:48.158Z,7.98
2023-03-18T03:58:47.803Z,7.95
2023-03-18T04:03:48.656Z,7.92
2023-03-18T04:08:49.072Z,7.94
2023-03-18T04:13:47.992Z,7.91
2023-03-18T04:18:48.318Z,7.91
2023-03-18T04:23:47.441Z,7.84
2023-03-18T04:28:47.512Z,7.89
2023-03-18T04:33:49.548Z,7.90
2023-03-18T04:38:48.547Z,7.94
2023-03-18T04:43:48.950Z,7.96
2023-03-18T04:48:49.354Z,8.00
2023-03-18T04:53:49.076Z,8.02
2023-03-18T04:58:48.344Z,8.05
2023-03-18T05:03:53.507Z,8.05
2023-03-18T05:08:55.189Z,7.89
2023-03-18T05:13:56.150Z,7.99
2023-03-18T05:19:01.881Z,7.94
2023-03-18T05:24:01.301Z,7.76
2023-03-18T05:29:06.339Z,7.65
2023-03-18T05:34:14.261Z,7.35
2023-03-18T05:39:15.059Z,6.82
2023-03-18T05:44:14.833Z,6.83
2023-03-18T05:49:16.193Z,6.88
2023-03-18T05:54:25.451Z,7.09
2023-03-18T05:59:31.968Z,7.11
2023-03-18T06:04:38.064Z,7.25
2023-03-18T06:09:38.666Z,7.26
2023-03-18T06:14:41.157Z,7.05
2023-03-18T06:19:46.264Z,7.46
2023-03-18T06:24:47.830Z,7.63
2023-03-18T06:29:49.005Z,7.88
2023-03-18T06:34:52.669Z,8.05
2023-03-18T06:39:52.087Z,8.26
2023-03-18T06:44:51.953Z,8.46
2023-03-18T06:50:02.485Z,8.64
2023-03-18T06:55:07.643Z,8.95
2023-03-18T07:00:11.998Z,9.00
2023-03-18T07:05:13.764Z,9.31
2023-03-18T07:10:21.043Z,9.58
2023-03-18T07:15:21.873Z,9.69
2023-03-18T07:20:24.902Z,9.74
2023-03-18T07:25:23.873Z,9.77
2023-03-18T07:30:23.096Z,9.72
2023-03-18T07:35:27.635Z,9.89
2023-03-18T07:40:26.595Z,9.93
2023-03-18T07:45:25.726Z,9.81
2023-03-18T07:50:26.466Z,9.77
2023-03-18T07:55:25.479Z,9.86
2023-03-18T08:00:24.541Z,9.59
2023-03-18T08:05:23.324Z,9.92
2023-03-18T08:10:24.093Z,10.08
2023-03-18T08:15:23.839Z,9.90
2023-03-18T08:20:23.231Z,10.18
2023-03-18T08:25:31.774Z,10.05
2023-03-18T08:30:32.776Z,10.29
2023-03-18T08:35:32.085Z,10.04
2023-03-18T08:40:34.887Z,10.02
2023-03-18T08:45:34.132Z,10.30
2023-03-18T08:50:33.195Z,10.48
2023-03-18T08:55:35.843Z,10.66
2023-03-18T09:00:36.589Z,10.85
2023-03-18T09:05:36.842Z,10.94
2023-03-18T09:10:37.142Z,12.04
2023-03-18T09:15:35.946Z,12.57
2023-03-18T09:20:34.858Z,13.37
2023-03-18T09:25:34.476Z,13.30
2023-03-18T09:30:35.311Z,14.21
2023-03-18T09:35:34.684Z,15.08
2023-03-18T09:40:37.972Z,15.35
2023-03-18T09:45:49.512Z,16.11
2023-03-18T09:50:57.551Z,16.29
2023-03-18T09:56:00.958Z,17.26
2023-03-18T10:01:03.246Z,17.25
2023-03-18T10:06:07.017Z,18.03
2023-03-18T10:11:12.938Z,17.93
2023-03-18T10:16:19.612Z,18.51
2023-03-18T10:21:28.336Z,18.79
2023-03-18T10:26:33.458Z,19.11
2023-03-18T10:31:49.403Z,19.60
2023-03-18T10:36:54.225Z,19.61
2023-03-18T10:41:55.274Z,20.30
2023-03-18T10:47:01.251Z,19.21
2023-03-18T10:52:07.860Z,19.20
2023-03-18T10:57:06.834Z,19.79
2023-03-18T11:02:17.209Z,20.15
2023-03-18T11:07:20.918Z,20.38
2023-03-18T11:12:24.395Z,19.40
2023-03-18T11:17:29.349Z,18.53
2023-03-18T11:22:30.268Z,17.72
2023-03-18T11:27:39.973Z,18.17
2023-03-18T11:32:52.816Z,19.56
2023-03-18T11:37:52.401Z,20.65
2023-03-18T11:42:57.237Z,19.87
2023-03-18T11:47:58.501Z,19.13
2023-03-18T11:59:21.102Z,21.18
2023-03-18T12:04:48.852Z,21.39
2023-03-18T12:09:55.569Z,21.10
2023-03-18T12:15:03.193Z,20.87
2023-03-18T12:20:40.489Z,22.24
2023-03-18T12:25:58.169Z,23.54
2023-03-18T12:31:14.158Z,21.07
2023-03-18T12:36:23.730Z,20.93
2023-03-18T12:41:47.254Z,21.48
2023-03-18T12:46:50.883Z,21.90
2023-03-18T12:51:57.497Z,22.52
2023-03-18T12:57:03.662Z,21.31
2023-03-18T13:02:20.277Z,22.23
2023-03-18T13:07:27.646Z,22.95
2023-03-18T13:12:31.962Z,23.03
2023-03-18T13:17:34.193Z,24.40
2023-03-18T13:22:57.500Z,24.66
2023-03-18T13:28:23.084Z,24.09
2023-03-18T13:34:04.057Z,22.87
2023-03-18T13:39:20.669Z,21.89
2023-03-18T13:44:26.125Z,21.22
2023-03-18T13:49:29.732Z,20.37
2023-03-18T13:54:36.082Z,21.15
2023-03-18T13:59:46.946Z,20.75
2023-03-18T14:04:52.013Z,21.67
2023-03-18T14:10:18.936Z,21.26
2023-03-18T14:15:38.943Z,21.25
2023-03-18T14:20:45.020Z,21.03
2023-03-18T14:25:54.579Z,20.59
2023-03-18T14:31:17.827Z,19.40
2023-03-18T14:36:16.780Z,18.14
2023-03-18T14:41:22.677Z,17.65
2023-03-18T14:46:31.511Z,16.94
2023-03-18T14:51:32.918Z,16.30
2023-03-18T14:56:42.733Z,15.36
2023-03-18T15:01:46.011Z,15.17
2023-03-18T15:06:45.659Z,14.96
2023-03-18T15:11:47.928Z,14.29
2023-03-18T15:16:50.947Z,13.94
2023-03-18T15:21:50.292Z,13.86
2023-03-18T15:26:57.992Z,13.83
2023-03-18T15:32:10.457Z,13.30
2023-03-18T15:37:33.707Z,13.03
2023-03-18T15:42:34.771Z,12.98
2023-03-18T15:47:34.700Z,12.93
2023-03-18T15:52:36.734Z,12.46
2023-03-18T15:57:40.328Z,12.35
2023-03-18T16:02:39.574Z,12.43
2023-03-18T16:07:38.731Z,12.42
2023-03-18T16:12:41.154Z,12.37
2023-03-18T16:17:39.953Z,12.10
2023-03-18T16:22:39.493Z,12.12
2023-03-18T16:27:48.542Z,12.08
2023-03-18T16:32:49.820Z,11.83
2023-03-18T16:37:53.643Z,11.78
2023-03-18T16:43:08.669Z,11.71
2023-03-18T16:48:17.483Z,11.68
2023-03-18T16:53:27.919Z,11.79
2023-03-18T16:58:37.818Z,11.65
2023-03-18T17:03:46.707Z,11.63
2023-03-18T17:08:45.472Z,11.44
2023-03-18T17:13:45.760Z,11.23
2023-03-18T17:18:44.593Z,11.21
2023-03-18T17:23:43.485Z,11.05
2023-03-18T17:28:44.850Z,11.03
2023-03-18T17:33:45.067Z,11.13
2023-03-18T17:38:43.937Z,11.10
2023-03-18T17:43:43.282Z,11.06
2023-03-18T17:48:42.240Z,11.01
2023-03-18T17:53:45.158Z,11.06
2023-03-18T17:58:45.768Z,10.68
2023-03-18T18:03:45.054Z,10.84
2023-03-18T18:08:45.198Z,10.91
2023-03-18T18:13:44.036Z,10.95
2023-03-18T18:18:43.000Z,10.92
2023-03-18T18:23:42.519Z,10.90
2023-03-18T18:28:45.270Z,10.90
2023-03-18T18:33:45.604Z,10.75
2023-03-18T18:38:44.405Z,10.61
2023-03-18T18:43:44.486Z,10.70
2023-03-18T18:48:45.145Z,10.56
2023-03-18T18:53:44.058Z,10.79
2023-03-18T18:58:44.298Z,11.05
2023-03-18T19:03:43.735Z,11.09
2023-03-18T19:08:42.566Z,11.26
2023-03-18T19:13:42.107Z,11.45
2023-03-18T19:18:43.311Z,11.44
2023-03-18T19:23:42.168Z,11.33
2023-03-18T19:29:01.355Z,11.32
2023-03-18T19:34:02.367Z,11.40
2023-03-18T19:39:02.710Z,11.22
2023-03-18T19:44:05.042Z,11.18
2023-03-18T19:49:13.773Z,11.16
2023-03-18T19:54:24.002Z,11.06
2023-03-18T19:59:25.124Z,11.00
2023-03-18T20:04:27.766Z,11.16
2023-03-18T20:09:26.639Z,11.35
2023-03-18T20:14:27.779Z,11.51
2023-03-18T20:19:29.915Z,11.44
2023-03-18T20:24:30.315Z,11.37
2023-03-18T20:29:30.345Z,11.39
2023-03-18T20:34:30.698Z,11.54
2023-03-18T20:39:29.893Z,11.56
2023-03-18T20:44:28.606Z,11.57
2023-03-18T20:49:27.718Z,11.63
2023-03-18T20:54:30.663Z,11.65
2023-03-18T20:59:29.366Z,11.65
2023-03-18T21:04:28.393Z,11.55
2023-03-18T21:09:28.860Z,11.51
2023-03-18T21:14:27.776Z,11.50
2023-03-18T21:19:26.675Z,11.50
2023-03-18T21:24:29.435Z,11.49
2023-03-18T21:29:28.181Z,11.43
2023-03-18T21:34:26.979Z,11.32
2023-03-18T21:39:25.786Z,11.24
2023-03-18T21:44:26.025Z,11.27
2023-03-18T21:49:24.936Z,11.22
2023-03-18T21:54:25.870Z,11.23
2023-03-18T21:59:27.155Z,11.29
2023-03-18T22:04:26.027Z,11.22
2023-03-18T22:09:26.660Z,10.98
2023-03-18T22:14:26.778Z,10.98
2023-03-18T22:19:25.553Z,11.02
2023-03-18T22:24:24.433Z,11.03
2023-03-18T22:29:24.365Z,11.01
2023-03-18T22:34:25.162Z,10.91
2023-03-18T22:39:23.895Z,10.94
2023-03-18T22:44:25.343Z,10.90
2023-03-18T22:49:25.474Z,10.97
2023-03-18T22:54:26.375Z,11.01
2023-03-18T22:59:25.138Z,11.00
2023-03-18T23:04:25.789Z,10.83
2023-03-18T23:09:25.380Z,10.92
2023-03-18T23:14:24.627Z,10.97
2023-03-18T23:19:23.561Z,10.99
2023-03-18T23:24:23.711Z,11.02
2023-03-18T23:29:22.419Z,11.07
2023-03-18T23:34:21.096Z,11.12
2023-03-18T23:39:19.912Z,11.14
2023-03-18T23:44:20.023Z,11.16
2023-03-18T23:49:19.239Z,11.19
2023-03-18T23:54:18.084Z,11.17
2023-03-18T23:59:16.889Z,11.12
